createdAt,value
2023-04-14T00:01:50.980Z,6.53
2023-04-14T00:04:54.135Z,6.90
2023-04-14T00:07:57.273Z,6.50
2023-04-14T00:10:59.955Z,6.35
2023-04-14T00:14:03.531Z,6.63
2023-04-14T00:17:06.409Z,6.93
2023-04-14T00:20:09.523Z,7.03
2023-04-14T00:23:12.317Z,7.45
2023-04-14T00:26:14.933Z,7.55
2023-04-14T00:29:19.815Z,9.35
2023-04-14T00:32:23.061Z,13.88
2023-04-14T00:35:29.453Z,7.10
2023-04-14T00:38:33.529Z,7.82
2023-04-14T00:41:39.289Z,7.40
2023-04-14T00:44:42.184Z,7.38
2023-04-14T00:47:50.991Z,7.97
2023-04-14T00:50:53.782Z,11.43
2023-04-14T00:53:57.098Z,8.35
2023-04-14T00:57:00.041Z,8.40
2023-04-14T01:00:07.629Z,10.35
2023-04-14T01:03:11.102Z,7.57
2023-04-14T01:06:15.146Z,10.07
2023-04-14T01:09:18.658Z,9.85
2023-04-14T01:12:52.306Z,9.10
2023-04-14T01:16:20.098Z,8.90
2023-04-14T01:19:38.199Z,7.95
2023-04-14T01:22:53.838Z,15.85
2023-04-14T01:26:04.645Z,9.82
2023-04-14T01:29:36.354Z,8.40
2023-04-14T01:32:46.680Z,8.88
2023-04-14T01:35:57.030Z,9.48
2023-04-14T01:39:04.007Z,8.65
2023-04-14T01:42:12.752Z,11.05
2023-04-14T01:45:30.489Z,10.13
2023-04-14T01:48:34.921Z,6.55
2023-04-14T01:51:42.757Z,6.53
2023-04-14T01:54:54.561Z,8.52
2023-04-14T01:58:00.979Z,8.27
2023-04-14T02:01:08.966Z,9.13
2023-04-14T02:04:17.257Z,8.40
2023-04-14T02:07:23.891Z,9.20
2023-04-14T02:10:30.406Z,6.88
2023-04-14T02:13:34.468Z,5.03
2023-04-14T02:16:42.899Z,8.25
2023-04-14T02:19:47.245Z,6.70
2023-04-14T02:22:51.290Z,9.50
2023-04-14T02:26:19.890Z,9.00
2023-04-14T02:29:24.555Z,8.48
2023-04-14T02:32:31.149Z,9.85
2023-04-14T02:35:53.745Z,8.35
2023-04-14T02:39:01.545Z,9.52
2023-04-14T02:42:17.174Z,8.93
2023-04-14T02:45:28.163Z,9.70
2023-04-14T02:48:40.561Z,9.57
2023-04-14T02:51:46.814Z,9.23
2023-04-14T02:54:54.065Z,9.82
2023-04-14T02:58:02.320Z,8.30
2023-04-14T03:01:11.201Z,8.55
2023-04-14T03:04:24.556Z,8.68
2023-04-14T03:07:29.071Z,9.38
2023-04-14T03:10:33.423Z,8.85
2023-04-14T03:13:40.905Z,8.63
2023-04-14T03:16:45.190Z,7.20
2023-04-14T03:19:50.149Z,6.07
2023-04-14T03:23:07.090Z,5.03
2023-04-14T03:26:23.241Z,3.70
2023-04-14T03:29:28.783Z,2.70
2023-04-14T03:32:37.659Z,3.40
2023-04-14T03:35:42.393Z,4.75
2023-04-14T03:38:50.858Z,5.72
2023-04-14T03:42:02.617Z,5.68
2023-04-14T03:45:07.120Z,3.42
2023-04-14T03:48:14.400Z,2.00
2023-04-14T03:51:23.426Z,3.33
2023-04-14T03:54:28.608Z,3.63
2023-04-14T03:57:32.665Z,2.10
2023-04-14T04:00:37.063Z,2.10
2023-04-14T04:03:42.035Z,2.00
2023-04-14T04:06:46.725Z,1.83
2023-04-14T04:09:52.011Z,6.13
2023-04-14T04:12:58.695Z,6.45
2023-04-14T04:16:03.034Z,7.07
2023-04-14T04:19:09.135Z,5.60
2023-04-14T04:22:15.627Z,2.83
2023-04-14T04:25:22.381Z,2.05
2023-04-14T04:28:43.695Z,2.05
2023-04-14T04:31:48.095Z,3.33
2023-04-14T04:34:52.356Z,5.00
2023-04-14T04:37:57.150Z,4.75
2023-04-14T04:41:01.019Z,4.25
2023-04-14T04:44:07.131Z,5.82
2023-04-14T04:47:11.025Z,6.07
2023-04-14T04:50:18.973Z,6.75
2023-04-14T04:53:22.837Z,6.55
2023-04-14T04:56:27.115Z,6.03
2023-04-14T04:59:30.733Z,6.25
2023-04-14T05:02:34.336Z,6.50
2023-04-14T05:05:38.426Z,7.47
2023-04-14T05:08:41.788Z,7.55
2023-04-14T05:11:45.399Z,7.15
2023-04-14T05:14:48.922Z,6.38
2023-04-14T05:17:56.443Z,6.35
2023-04-14T05:21:08.466Z,5.82
2023-04-14T05:24:12.080Z,6.00
2023-04-14T05:27:15.482Z,5.85
2023-04-14T05:30:18.745Z,6.90
2023-04-14T05:33:22.817Z,5.75
2023-04-14T05:36:28.630Z,5.77
2023-04-14T05:39:31.958Z,6.15
2023-04-14T05:42:35.565Z,6.53
2023-04-14T05:45:39.715Z,6.40
2023-04-14T05:48:43.061Z,6.05
2023-04-14T05:51:46.628Z,5.78
2023-04-14T05:54:50.518Z,4.53
2023-04-14T05:57:54.383Z,4.55
2023-04-14T06:00:58.263Z,3.85
2023-04-14T06:04:03.581Z,4.68
2023-04-14T06:07:07.476Z,4.70
2023-04-14T06:10:14.150Z,4.70
2023-04-14T06:13:17.591Z,4.63
2023-04-14T06:16:24.221Z,4.47
2023-04-14T06:19:27.348Z,5.05
2023-04-14T06:22:30.826Z,5.40
2023-04-14T06:25:37.167Z,4.60
2023-04-14T06:28:43.273Z,5.57
2023-04-14T06:31:50.165Z,5.45
2023-04-14T06:34:53.961Z,5.33
2023-04-14T06:37:57.271Z,4.93
2023-04-14T06:41:00.695Z,4.40
2023-04-14T06:44:04.173Z,4.90
2023-04-14T06:47:07.848Z,5.78
2023-04-14T06:50:12.830Z,5.18
2023-04-14T06:53:16.014Z,4.85
2023-04-14T06:56:18.957Z,5.43
2023-04-14T06:59:28.166Z,5.80
2023-04-14T07:02:31.714Z,5.85
2023-04-14T07:05:34.660Z,5.25
2023-04-14T07:08:38.126Z,5.13
2023-04-14T07:11:41.190Z,4.88
2023-04-14T07:14:51.888Z,5.50
2023-04-14T07:17:54.834Z,5.03
2023-04-14T07:20:59.069Z,5.88
2023-04-14T07:24:02.324Z,5.38
2023-04-14T07:27:07.677Z,5.80
2023-04-14T07:30:10.902Z,5.70
2023-04-14T07:33:14.037Z,6.35
2023-04-14T07:36:17.331Z,7.53
2023-04-14T07:39:22.909Z,6.88
2023-04-14T07:42:25.730Z,6.47
2023-04-14T07:45:28.676Z,6.47
2023-04-14T07:48:36.158Z,7.43
2023-04-14T07:51:39.063Z,7.60
2023-04-14T07:54:42.252Z,8.00
2023-04-14T07:57:45.342Z,7.72
2023-04-14T08:00:48.605Z,8.73
2023-04-14T08:03:51.641Z,7.45
2023-04-14T08:06:54.541Z,8.30
2023-04-14T08:09:57.441Z,7.43
2023-04-14T08:13:03.564Z,7.65
2023-04-14T08:16:06.761Z,8.60
2023-04-14T08:19:09.598Z,7.85
2023-04-14T08:22:12.373Z,7.03
2023-04-14T08:25:15.593Z,7.55
2023-04-14T08:28:18.768Z,7.00
2023-04-14T08:31:25.833Z,8.05
2023-04-14T08:37:34.074Z,7.47
2023-04-14T08:40:39.490Z,6.82
2023-04-14T08:43:42.343Z,8.02
2023-04-14T08:46:46.054Z,8.02
2023-04-14T08:49:59.261Z,7.32
2023-04-14T08:53:04.669Z,8.88
2023-04-14T08:56:10.141Z,7.68
2023-04-14T08:59:12.963Z,7.78
2023-04-14T09:02:16.190Z,7.80
2023-04-14T09:05:19.138Z,7.38
2023-04-14T09:08:22.067Z,7.55
2023-04-14T09:11:25.092Z,8.20
2023-04-14T09:14:30.549Z,8.27
2023-04-14T09:17:33.496Z,8.18
2023-04-14T09:20:41.083Z,7.45
2023-04-14T09:23:44.624Z,8.57
2023-04-14T09:26:47.794Z,9.27
2023-04-14T09:29:51.804Z,8.80
2023-04-14T09:32:54.832Z,10.25
2023-04-14T09:35:57.765Z,8.95
2023-04-14T09:39:00.820Z,8.10
2023-04-14T09:42:04.513Z,9.80
2023-04-14T09:45:08.631Z,8.45
2023-04-14T09:48:15.664Z,8.30
2023-04-14T09:54:26.113Z,7.35
2023-04-14T10:00:32.707Z,7.63
2023-04-14T10:03:57.693Z,7.13
2023-04-14T10:07:01.404Z,8.30
2023-04-14T10:10:08.123Z,7.65
2023-04-14T10:13:15.277Z,7.25
2023-04-14T10:19:22.145Z,5.95
2023-04-14T10:22:28.038Z,6.35
2023-04-14T10:25:31.701Z,6.93
2023-04-14T10:28:36.330Z,7.20
2023-04-14T10:32:04.185Z,6.00
2023-04-14T10:35:10.669Z,6.68
2023-04-14T10:38:13.925Z,6.93
2023-04-14T10:41:16.706Z,6.97
2023-04-14T10:44:26.718Z,6.57
2023-04-14T10:47:29.951Z,6.80
2023-04-14T10:50:47.966Z,6.35
2023-04-14T10:53:52.960Z,6.68
2023-04-14T10:57:22.795Z,6.53
2023-04-14T11:00:28.046Z,6.57
2023-04-14T11:03:33.037Z,6.30
2023-04-14T11:06:48.735Z,6.93
2023-04-14T11:09:51.901Z,5.85
2023-04-14T11:13:06.335Z,5.50
2023-04-14T11:16:09.394Z,6.05
2023-04-14T11:19:15.851Z,7.20
2023-04-14T11:22:41.902Z,6.13
2023-04-14T11:25:45.814Z,6.10
2023-04-14T11:28:48.709Z,5.72
2023-04-14T11:32:05.983Z,6.63
2023-04-14T11:35:11.612Z,6.68
2023-04-14T11:38:15.647Z,6.68
2023-04-14T11:41:19.260Z,6.07
2023-04-14T11:44:22.716Z,6.88
2023-04-14T11:47:25.799Z,6.35
2023-04-14T11:50:31.604Z,6.65
2023-04-14T11:53:34.979Z,6.60
2023-04-14T11:56:37.836Z,6.72
2023-04-14T11:59:44.820Z,6.68
2023-04-14T12:05:57.210Z,6.25
2023-04-14T12:09:04.051Z,5.05
2023-04-14T12:12:12.341Z,6.30
2023-04-14T12:15:15.297Z,8.85
2023-04-14T12:21:21.600Z,3.03
2023-04-14T12:24:24.466Z,2.72
2023-04-14T12:27:27.919Z,3.58
2023-04-14T12:30:30.730Z,2.97
2023-04-14T12:33:34.052Z,2.55
2023-04-14T12:36:49.581Z,2.72
2023-04-14T12:39:58.775Z,3.70
2023-04-14T12:43:01.681Z,2.90
2023-04-14T12:46:05.951Z,2.80
2023-04-14T12:49:32.163Z,2.72
2023-04-14T12:52:40.070Z,3.22
2023-04-14T12:55:43.238Z,3.40
2023-04-14T12:58:51.533Z,3.42
2023-04-14T13:01:54.776Z,2.85
2023-04-14T13:04:58.156Z,2.33
2023-04-14T13:08:01.213Z,3.60
2023-04-14T13:11:04.227Z,6.97
2023-04-14T13:14:07.128Z,5.05
2023-04-14T13:17:09.908Z,5.47
2023-04-14T13:20:12.804Z,6.28
2023-04-14T13:23:16.348Z,7.38
2023-04-14T13:26:19.161Z,6.90
2023-04-14T13:29:22.301Z,6.65
2023-04-14T13:32:25.042Z,7.30
2023-04-14T13:35:27.814Z,7.35
2023-04-14T13:38:33.959Z,14.77
2023-04-14T13:41:36.742Z,8.63
2023-04-14T13:44:39.571Z,7.18
2023-04-14T13:47:42.578Z,5.50
2023-04-14T13:50:45.432Z,4.93
2023-04-14T13:53:48.352Z,7.25
2023-04-14T13:56:51.426Z,5.55
2023-04-14T13:59:54.119Z,5.38
2023-04-14T14:02:57.270Z,8.60
2023-04-14T14:06:00.529Z,7.35
2023-04-14T14:09:06.282Z,6.75
2023-04-14T14:12:12.093Z,5.60
2023-04-14T14:15:15.268Z,5.45
2023-04-14T14:18:18.016Z,5.05
2023-04-14T14:21:20.788Z,4.40
2023-04-14T14:24:23.589Z,4.78
2023-04-14T14:27:26.596Z,4.93
2023-04-14T14:30:29.361Z,5.72
2023-04-14T14:33:32.138Z,12.80
2023-04-14T14:36:35.098Z,12.93
2023-04-14T14:39:38.073Z,5.90
2023-04-14T14:42:41.021Z,4.57
2023-04-14T14:45:43.918Z,5.15
2023-04-14T14:48:47.371Z,4.25
2023-04-14T14:51:50.365Z,5.15
2023-04-14T14:54:53.954Z,11.57
2023-04-14T14:57:59.031Z,5.40
2023-04-14T15:01:01.870Z,4.40
2023-04-14T15:04:06.782Z,5.43
2023-04-14T15:07:09.663Z,4.80
2023-04-14T15:10:12.444Z,3.90
2023-04-14T15:13:15.516Z,4.47
2023-04-14T15:16:18.473Z,4.88
2023-04-14T15:19:21.332Z,3.17
2023-04-14T15:22:24.143Z,4.32
2023-04-14T15:25:26.922Z,3.35
2023-04-14T15:28:29.832Z,4.03
2023-04-14T15:31:32.653Z,4.50
2023-04-14T15:34:35.332Z,6.15
2023-04-14T15:37:38.148Z,6.35
2023-04-14T15:40:40.981Z,5.25
2023-04-14T15:43:43.874Z,4.32
2023-04-14T15:46:46.791Z,4.22
2023-04-14T15:49:53.098Z,3.83
2023-04-14T15:53:13.110Z,4.10
2023-04-14T15:56:16.185Z,3.08
2023-04-14T15:59:19.416Z,3.55
2023-04-14T16:02:22.291Z,3.92
2023-04-14T16:05:25.215Z,3.25
2023-04-14T16:08:28.351Z,4.63
2023-04-14T16:11:31.705Z,5.30
2023-04-14T16:14:35.731Z,5.43
2023-04-14T16:17:38.526Z,6.63
2023-04-14T16:20:41.636Z,10.13
2023-04-14T16:23:44.531Z,7.82
2023-04-14T16:26:48.478Z,5.88
2023-04-14T16:29:51.503Z,15.43
2023-04-14T16:32:54.391Z,5.32
2023-04-14T16:35:57.518Z,3.47
2023-04-14T16:39:00.664Z,4.38
2023-04-14T16:42:04.036Z,5.05
2023-04-14T16:45:07.750Z,4.38
2023-04-14T16:48:10.851Z,4.22
2023-04-14T16:51:13.912Z,7.20
2023-04-14T16:54:17.031Z,7.60
2023-04-14T16:57:20.108Z,3.65
2023-04-14T17:00:22.984Z,3.22
2023-04-14T17:03:26.063Z,2.35
2023-04-14T17:06:29.357Z,1.67
2023-04-14T17:09:32.680Z,1.33
2023-04-14T17:12:35.619Z,1.40
2023-04-14T17:15:39.431Z,1.08
2023-04-14T17:18:43.202Z,1.05
2023-04-14T17:21:46.298Z,1.02
2023-04-14T17:24:49.335Z,1.10
2023-04-14T17:27:52.512Z,1.08
2023-04-14T17:30:56.054Z,1.15
2023-04-14T17:33:59.291Z,1.70
2023-04-14T17:37:02.635Z,2.08
2023-04-14T17:40:06.959Z,3.45
2023-04-14T17:43:09.719Z,3.13
2023-04-14T17:46:12.589Z,2.35
2023-04-14T17:49:15.554Z,1.48
2023-04-14T17:52:21.086Z,2.85
2023-04-14T17:55:23.979Z,1.70
2023-04-14T17:58:27.410Z,1.15
2023-04-14T18:01:30.473Z,1.75
2023-04-14T18:04:33.506Z,1.20
2023-04-14T18:07:37.657Z,1.50
2023-04-14T18:11:02.332Z,1.83
2023-04-14T18:14:09.164Z,1.92
2023-04-14T18:17:15.155Z,1.92
2023-04-14T18:20:26.875Z,1.20
2023-04-14T18:23:39.127Z,2.45
2023-04-14T18:26:49.921Z,1.52
2023-04-14T18:29:54.600Z,1.40
2023-04-14T18:32:57.715Z,1.98
2023-04-14T18:36:07.097Z,1.95
2023-04-14T18:39:10.104Z,1.92
2023-04-14T18:42:13.382Z,2.17
2023-04-14T18:45:16.875Z,2.22
2023-04-14T18:48:20.386Z,2.58
2023-04-14T18:51:23.295Z,2.55
2023-04-14T18:54:26.093Z,2.50
2023-04-14T18:57:29.512Z,2.30
2023-04-14T19:00:33.987Z,2.83
2023-04-14T19:03:37.041Z,3.25
2023-04-14T19:06:40.923Z,3.72
2023-04-14T19:09:43.759Z,4.38
2023-04-14T19:12:46.588Z,3.15
2023-04-14T19:15:49.551Z,2.95
2023-04-14T19:18:52.766Z,3.28
2023-04-14T19:21:58.073Z,4.00
2023-04-14T19:25:01.317Z,3.47
2023-04-14T19:28:04.631Z,3.08
2023-04-14T19:31:07.507Z,3.13
2023-04-14T19:34:10.805Z,3.13
2023-04-14T19:37:13.919Z,2.72
2023-04-14T19:40:17.119Z,3.00
2023-04-14T19:43:20.332Z,2.70
2023-04-14T19:46:23.207Z,2.33
2023-04-14T19:49:26.589Z,1.98
2023-04-14T19:52:29.528Z,2.05
2023-04-14T19:55:32.414Z,1.65
2023-04-14T19:58:36.853Z,1.30
2023-04-14T20:01:39.744Z,1.35
2023-04-14T20:04:44.145Z,1.50
2023-04-14T20:07:46.869Z,1.20
2023-04-14T20:10:52.378Z,1.27
2023-04-14T20:13:55.075Z,1.45
2023-04-14T20:16:57.967Z,1.52
2023-04-14T20:20:01.995Z,1.80
2023-04-14T20:23:06.189Z,1.73
2023-04-14T20:26:11.181Z,1.33
2023-04-14T20:29:13.989Z,1.20
2023-04-14T20:32:16.856Z,1.20
2023-04-14T20:35:20.377Z,2.05
2023-04-14T20:38:23.498Z,1.90
2023-04-14T20:41:26.275Z,1.88
2023-04-14T20:44:29.124Z,1.40
2023-04-14T20:47:34.446Z,1.13
2023-04-14T20:50:37.589Z,0.88
2023-04-14T20:53:40.410Z,0.93
2023-04-14T20:56:43.316Z,0.95
2023-04-14T20:59:46.121Z,1.15
2023-04-14T21:02:49.766Z,1.10
2023-04-14T21:05:52.925Z,1.30
2023-04-14T21:08:56.169Z,1.30
2023-04-14T21:12:15.294Z,1.40
2023-04-14T21:15:44.097Z,1.20
2023-04-14T21:18:42.006Z,1.52
2023-04-14T21:21:44.868Z,1.80
2023-04-14T21:24:49.097Z,2.28
2023-04-14T21:27:51.844Z,1.85
2023-04-14T21:31:01.478Z,1.83
2023-04-14T21:34:04.878Z,1.80
2023-04-14T21:37:07.769Z,1.48
2023-04-14T21:40:11.814Z,1.40
2023-04-14T21:43:14.711Z,1.15
2023-04-14T21:46:17.517Z,1.10
2023-04-14T21:49:20.336Z,1.10
2023-04-14T21:52:23.310Z,1.30
2023-04-14T21:55:26.062Z,1.10
2023-04-14T21:58:28.994Z,0.68
2023-04-14T22:01:34.753Z,1.00
2023-04-14T22:04:37.762Z,1.00
2023-04-14T22:07:40.481Z,1.00
2023-04-14T22:10:43.798Z,0.90
2023-04-14T22:13:47.545Z,0.98
2023-04-14T22:16:50.356Z,0.88
2023-04-14T22:19:53.999Z,0.80
2023-04-14T22:22:56.683Z,1.08
2023-04-14T22:25:59.467Z,0.90
2023-04-14T22:29:02.422Z,1.20
2023-04-14T22:32:05.717Z,1.20
2023-04-14T22:35:08.698Z,0.90
2023-04-14T22:38:11.827Z,1.40
2023-04-14T22:41:18.787Z,1.40
2023-04-14T22:44:21.874Z,1.25
2023-04-14T22:47:24.744Z,1.30
2023-04-14T22:50:27.574Z,1.13
2023-04-14T22:53:30.206Z,1.73
2023-04-14T22:56:33.376Z,1.80
2023-04-14T22:59:36.137Z,1.73
2023-04-14T23:02:39.085Z,1.98
2023-04-14T23:05:41.822Z,2.22
2023-04-14T23:08:44.537Z,1.90
2023-04-14T23:11:47.350Z,2.00
2023-04-14T23:14:50.017Z,1.90
2023-04-14T23:17:52.750Z,2.35
2023-04-14T23:20:55.396Z,2.40
2023-04-14T23:23:57.975Z,2.30
2023-04-14T23:27:00.806Z,2.20
2023-04-14T23:30:03.708Z,2.30
2023-04-14T23:33:07.092Z,2.58
2023-04-14T23:36:09.692Z,2.33
2023-04-14T23:39:12.944Z,2.50
2023-04-14T23:42:15.836Z,2.50
2023-04-14T23:45:18.403Z,1.90
2023-04-14T23:48:21.171Z,2.13
2023-04-14T23:51:23.843Z,2.72
2023-04-14T23:54:26.540Z,3.55
2023-04-14T23:57:29.492Z,2.28
